createdAt,value
2018-04-19T00:00:32.734Z,1024.68
2018-04-19T00:02:25.641Z,1024.67
2018-04-19T00:03:25.666Z,1024.68
2018-04-19T00:05:18.591Z,1024.68
2018-04-19T00:06:18.596Z,1024.68
2018-04-19T00:08:11.530Z,1024.68
2018-04-19T00:09:11.529Z,1024.66
2018-04-19T00:11:04.438Z,1024.65
2018-04-19T00:12:04.462Z,1024.64
2018-04-19T00:13:57.390Z,1024.63
2018-04-19T00:14:57.395Z,1024.64
2018-04-19T00:16:50.299Z,1024.63
2018-04-19T00:17:50.330Z,1024.63
2018-04-19T00:19:43.249Z,1024.61
2018-04-19T00:20:43.298Z,1024.59
2018-04-19T00:22:36.167Z,1024.59
2018-04-19T00:23:36.187Z,1024.62
2018-04-19T00:25:29.118Z,1024.58
2018-04-19T00:26:29.119Z,1024.58
2018-04-19T00:28:22.061Z,1024.57
2018-04-19T00:29:22.049Z,1024.56
2018-04-19T00:31:14.966Z,1024.54
2018-04-19T00:32:14.980Z,1024.52
2018-04-19T00:34:07.906Z,1024.54
2018-04-19T00:35:07.908Z,1024.51
2018-04-19T00:37:00.820Z,1024.50
2018-04-19T00:38:00.846Z,1024.49
2018-04-19T00:39:53.771Z,1024.45
2018-04-19T00:40:53.776Z,1024.47
2018-04-19T00:42:46.680Z,1024.46
2018-04-19T00:43:46.703Z,1024.46
2018-04-19T00:45:39.630Z,1024.46
2018-04-19T00:46:39.636Z,1024.45
2018-04-19T00:48:32.561Z,1024.44
2018-04-19T00:49:32.578Z,1024.42
2018-04-19T00:51:25.470Z,1024.42
2018-04-19T00:52:25.513Z,1024.42
2018-04-19T00:54:18.419Z,1024.44
2018-04-19T00:55:18.419Z,1024.44
2018-04-19T00:57:11.330Z,1024.44
2018-04-19T00:58:11.351Z,1024.42
2018-04-19T01:00:04.309Z,1024.42
2018-04-19T01:01:04.308Z,1024.41
2018-04-19T01:02:57.215Z,1024.45
2018-04-19T01:03:57.239Z,1024.42
2018-04-19T01:05:50.167Z,1024.42
2018-04-19T01:06:50.171Z,1024.43
2018-04-19T01:08:43.096Z,1024.43
2018-04-19T01:09:43.100Z,1024.37
2018-04-19T01:11:36.005Z,1024.33
2018-04-19T01:12:36.028Z,1024.34
2018-04-19T01:14:28.953Z,1024.28
2018-04-19T01:15:28.956Z,1024.26
2018-04-19T01:17:21.864Z,1024.29
2018-04-19T01:18:21.885Z,1024.32
2018-04-19T01:20:14.816Z,1024.27
2018-04-19T01:21:14.826Z,1024.26
2018-04-19T01:23:07.724Z,1024.26
2018-04-19T01:24:07.748Z,1024.29
2018-04-19T01:26:00.672Z,1024.29
2018-04-19T01:27:00.674Z,1024.28
2018-04-19T01:28:53.598Z,1024.25
2018-04-19T01:29:53.603Z,1024.27
2018-04-19T01:31:47.015Z,1024.25
2018-04-19T01:32:47.041Z,1024.24
2018-04-19T01:34:39.959Z,1024.22
2018-04-19T01:35:39.961Z,1024.23
2018-04-19T01:37:32.868Z,1024.20
2018-04-19T01:38:32.897Z,1024.22
2018-04-19T01:40:25.820Z,1024.20
2018-04-19T01:41:25.822Z,1024.24
2018-04-19T01:43:19.228Z,1024.25
2018-04-19T01:44:19.248Z,1024.23
2018-04-19T01:46:12.205Z,1024.22
2018-04-19T01:47:12.199Z,1024.17
2018-04-19T01:49:05.124Z,1024.19
2018-04-19T01:50:05.133Z,1024.16
2018-04-19T01:51:58.034Z,1024.20
2018-04-19T01:52:58.056Z,1024.18
2018-04-19T01:54:52.554Z,1024.22
2018-04-19T01:55:50.996Z,1024.22
2018-04-19T01:57:43.900Z,1024.19
2018-04-19T01:58:43.924Z,1024.18
2018-04-19T02:00:36.846Z,1024.16
2018-04-19T02:01:36.848Z,1024.19
2018-04-19T02:03:29.772Z,1024.18
2018-04-19T02:04:29.776Z,1024.18
2018-04-19T02:06:22.683Z,1024.15
2018-04-19T02:07:22.706Z,1024.09
2018-04-19T02:09:15.629Z,1024.10
2018-04-19T02:10:15.630Z,1024.14
2018-04-19T02:12:08.536Z,1024.12
2018-04-19T02:13:08.557Z,1024.12
2018-04-19T02:15:01.485Z,1024.10
2018-04-19T02:16:01.486Z,1024.06
2018-04-19T02:17:54.398Z,1024.04
2018-04-19T02:18:54.427Z,1024.04
2018-04-19T02:20:47.344Z,1024.00
2018-04-19T02:21:47.349Z,1024.00
2018-04-19T02:23:40.269Z,1024.02
2018-04-19T02:24:40.272Z,1024.04
2018-04-19T02:26:33.178Z,1024.04
2018-04-19T02:27:33.201Z,1024.03
2018-04-19T02:29:26.129Z,1024.04
2018-04-19T02:30:26.134Z,1023.99
2018-04-19T02:32:19.044Z,1023.96
2018-04-19T02:33:19.064Z,1023.92
2018-04-19T02:35:12.005Z,1023.97
2018-04-19T02:36:11.989Z,1023.95
2018-04-19T02:38:04.916Z,1023.93
2018-04-19T02:39:04.916Z,1023.91
2018-04-19T02:40:57.857Z,1023.90
2018-04-19T02:41:57.849Z,1023.89
2018-04-19T02:43:50.793Z,1023.85
2018-04-19T02:44:50.777Z,1023.85
2018-04-19T02:46:43.699Z,1023.85
2018-04-19T02:47:43.702Z,1023.82
2018-04-19T02:49:36.629Z,1023.79
2018-04-19T02:50:36.732Z,1023.80
2018-04-19T02:52:29.539Z,1023.79
2018-04-19T02:53:29.560Z,1023.79
2018-04-19T02:55:22.484Z,1023.74
2018-04-19T02:56:22.488Z,1023.73
2018-04-19T02:58:15.395Z,1023.72
2018-04-19T02:59:15.417Z,1023.76
2018-04-19T03:01:08.344Z,1023.71
2018-04-19T03:02:08.365Z,1023.73
2018-04-19T03:04:01.252Z,1023.73
2018-04-19T03:05:01.275Z,1023.75
2018-04-19T03:06:54.199Z,1023.70
2018-04-19T03:07:54.203Z,1023.72
2018-04-19T03:09:47.134Z,1023.69
2018-04-19T03:10:47.146Z,1023.67
2018-04-19T03:12:40.043Z,1023.68
2018-04-19T03:13:40.066Z,1023.68
2018-04-19T03:15:33.023Z,1023.67
2018-04-19T03:16:33.023Z,1023.65
2018-04-19T03:18:25.933Z,1023.59
2018-04-19T03:19:25.948Z,1023.56
2018-04-19T03:21:18.872Z,1023.56
2018-04-19T03:22:18.875Z,1023.54
2018-04-19T03:24:11.785Z,1023.55
2018-04-19T03:25:11.808Z,1023.52
2018-04-19T03:27:04.729Z,1023.54
2018-04-19T03:28:04.732Z,1023.52
2018-04-19T03:29:57.658Z,1023.50
2018-04-19T03:30:57.662Z,1023.54
2018-04-19T03:32:50.564Z,1023.50
2018-04-19T03:33:50.586Z,1023.51
2018-04-19T03:35:43.515Z,1023.48
2018-04-19T03:36:43.516Z,1023.46
2018-04-19T03:38:36.427Z,1023.46
2018-04-19T03:39:36.445Z,1023.47
2018-04-19T03:41:29.373Z,1023.42
2018-04-19T03:42:29.375Z,1023.45
2018-04-19T03:44:22.279Z,1023.48
2018-04-19T03:45:22.301Z,1023.44
2018-04-19T03:47:15.227Z,1023.41
2018-04-19T03:48:15.231Z,1023.39
2018-04-19T03:50:08.157Z,1023.40
2018-04-19T03:51:08.158Z,1023.42
2018-04-19T03:53:01.068Z,1023.41
2018-04-19T03:54:01.086Z,1023.42
2018-04-19T03:55:54.009Z,1023.44
2018-04-19T03:56:54.014Z,1023.42
2018-04-19T03:58:46.925Z,1023.39
2018-04-19T03:59:46.939Z,1023.40
2018-04-19T04:01:39.864Z,1023.43
2018-04-19T04:02:39.866Z,1023.44
2018-04-19T04:04:32.776Z,1023.44
2018-04-19T04:05:32.798Z,1023.45
2018-04-19T04:07:25.729Z,1023.44
2018-04-19T04:08:25.725Z,1023.44
2018-04-19T04:10:18.648Z,1023.42
2018-04-19T04:11:18.649Z,1023.42
2018-04-19T04:13:11.572Z,1023.45
2018-04-19T04:14:11.577Z,1023.46
2018-04-19T04:16:04.517Z,1023.49
2018-04-19T04:17:04.508Z,1023.44
2018-04-19T04:18:57.423Z,1023.42
2018-04-19T04:19:57.431Z,1023.44
2018-04-19T04:21:50.355Z,1023.42
2018-04-19T04:22:50.361Z,1023.45
2018-04-19T04:24:43.266Z,1023.49
2018-04-19T04:25:43.288Z,1023.47
2018-04-19T04:27:36.219Z,1023.48
2018-04-19T04:28:36.227Z,1023.44
2018-04-19T04:30:29.145Z,1023.45
2018-04-19T04:31:29.149Z,1023.46
2018-04-19T04:33:22.053Z,1023.44
2018-04-19T04:34:22.090Z,1023.46
2018-04-19T04:36:14.998Z,1023.50
2018-04-19T04:37:15.002Z,1023.50
2018-04-19T04:39:07.909Z,1023.50
2018-04-19T04:40:07.940Z,1023.50
2018-04-19T04:42:00.856Z,1023.44
2018-04-19T04:43:00.877Z,1023.51
2018-04-19T04:44:53.762Z,1023.51
2018-04-19T04:45:53.784Z,1023.52
2018-04-19T04:47:46.753Z,1023.51
2018-04-19T04:48:46.744Z,1023.51
2018-04-19T04:50:39.677Z,1023.51
2018-04-19T04:51:39.681Z,1023.51
2018-04-19T04:53:32.588Z,1023.51
2018-04-19T04:54:32.604Z,1023.54
2018-04-19T04:56:25.532Z,1023.55
2018-04-19T04:57:25.534Z,1023.51
2018-04-19T04:59:18.437Z,1023.49
2018-04-19T05:00:18.457Z,1023.47
2018-04-19T05:02:11.385Z,1023.50
2018-04-19T05:03:11.387Z,1023.50
2018-04-19T05:05:04.299Z,1023.50
2018-04-19T05:06:04.323Z,1023.48
2018-04-19T05:07:57.251Z,1023.50
2018-04-19T05:08:57.251Z,1023.51
2018-04-19T05:10:50.174Z,1023.51
2018-04-19T05:11:50.175Z,1023.49
2018-04-19T05:13:43.084Z,1023.49
2018-04-19T05:14:43.103Z,1023.51
2018-04-19T05:16:36.030Z,1023.49
2018-04-19T05:17:36.032Z,1023.48
2018-04-19T05:19:28.943Z,1023.48
2018-04-19T05:20:28.961Z,1023.48
2018-04-19T05:22:21.890Z,1023.46
2018-04-19T05:23:21.895Z,1023.47
2018-04-19T05:25:14.800Z,1023.45
2018-04-19T05:26:14.901Z,1023.47
2018-04-19T05:28:07.750Z,1023.46
2018-04-19T05:29:07.755Z,1023.49
2018-04-19T05:31:00.694Z,1023.51
2018-04-19T05:32:00.696Z,1023.52
2018-04-19T05:33:53.604Z,1023.57
2018-04-19T05:34:53.627Z,1023.59
2018-04-19T05:36:46.573Z,1023.53
2018-04-19T05:37:46.560Z,1023.54
2018-04-19T05:39:39.482Z,1023.55
2018-04-19T05:40:39.495Z,1023.60
2018-04-19T05:42:32.582Z,1023.61
2018-04-19T05:43:32.591Z,1023.63
2018-04-19T05:45:25.494Z,1023.59
2018-04-19T05:46:25.515Z,1023.61
2018-04-19T05:48:18.452Z,1023.62
2018-04-19T05:49:18.462Z,1023.64
2018-04-19T05:51:11.406Z,1023.62
2018-04-19T05:52:11.411Z,1023.61
2018-04-19T05:54:04.321Z,1023.65
2018-04-19T05:55:04.346Z,1023.65
2018-04-19T05:56:57.276Z,1023.69
2018-04-19T05:57:57.288Z,1023.68
2018-04-19T05:59:50.194Z,1023.69
2018-04-19T06:00:50.217Z,1023.71
2018-04-19T06:02:43.147Z,1023.68
2018-04-19T06:03:43.150Z,1023.69
2018-04-19T06:05:36.063Z,1023.69
2018-04-19T06:06:36.085Z,1023.69
2018-04-19T06:08:29.082Z,1023.70
2018-04-19T06:09:29.027Z,1023.75
2018-04-19T06:11:21.979Z,1023.73
2018-04-19T06:12:21.970Z,1023.71
2018-04-19T06:14:14.883Z,1023.71
2018-04-19T06:15:14.932Z,1023.73
2018-04-19T06:17:07.843Z,1023.74
2018-04-19T06:18:07.853Z,1023.75
2018-04-19T06:20:00.768Z,1023.72
2018-04-19T06:21:00.796Z,1023.75
2018-04-19T06:22:53.747Z,1023.73
2018-04-19T06:23:53.738Z,1023.76
2018-04-19T06:25:46.655Z,1023.80
2018-04-19T06:26:46.681Z,1023.79
2018-04-19T06:28:39.629Z,1023.75
2018-04-19T06:29:39.629Z,1023.77
2018-04-19T06:31:32.566Z,1023.78
2018-04-19T06:32:32.576Z,1023.78
2018-04-19T06:34:25.500Z,1023.76
2018-04-19T06:35:25.534Z,1023.83
2018-04-19T06:37:18.470Z,1023.81
2018-04-19T06:38:18.495Z,1023.79
2018-04-19T06:40:11.405Z,1023.81
2018-04-19T06:41:11.444Z,1023.80
2018-04-19T06:43:04.452Z,1023.81
2018-04-19T06:44:04.465Z,1023.80
2018-04-19T06:45:57.457Z,1023.79
2018-04-19T06:46:57.487Z,1023.83
2018-04-19T06:48:50.533Z,1023.81
2018-04-19T06:49:50.544Z,1023.83
2018-04-19T06:51:43.595Z,1023.82
2018-04-19T06:52:43.602Z,1023.83
2018-04-19T06:54:36.626Z,1023.87
2018-04-19T06:55:36.666Z,1023.87
2018-04-19T06:57:29.707Z,1023.88
2018-04-19T06:58:29.722Z,1023.87
2018-04-19T07:00:24.172Z,1023.86
2018-04-19T07:01:24.207Z,1023.86
2018-04-19T07:03:17.657Z,1023.87
2018-04-19T07:04:17.667Z,1023.86
2018-04-19T07:06:11.088Z,1023.91
2018-04-19T07:07:11.119Z,1023.87
2018-04-19T07:09:04.183Z,1023.93
2018-04-19T07:10:04.194Z,1023.92
2018-04-19T07:11:57.243Z,1023.93
2018-04-19T07:12:57.250Z,1023.92
2018-04-19T07:14:50.276Z,1023.92
2018-04-19T07:15:50.303Z,1023.91
2018-04-19T07:17:43.350Z,1023.90
2018-04-19T07:18:43.365Z,1023.86
2018-04-19T07:20:36.385Z,1023.88
2018-04-19T07:21:36.414Z,1023.89
2018-04-19T07:23:29.464Z,1023.85
2018-04-19T07:24:29.471Z,1023.86
2018-04-19T07:26:22.496Z,1023.88
2018-04-19T07:27:22.533Z,1023.87
2018-04-19T07:29:15.583Z,1023.89
2018-04-19T07:30:15.581Z,1023.90
2018-04-19T07:32:08.662Z,1023.90
2018-04-19T07:33:08.643Z,1023.92
2018-04-19T07:35:01.668Z,1023.95
2018-04-19T07:36:01.692Z,1023.91
2018-04-19T07:37:54.741Z,1023.89
2018-04-19T07:38:54.749Z,1023.87
2018-04-19T07:40:47.675Z,1023.91
2018-04-19T07:41:47.705Z,1023.94
2018-04-19T07:43:41.161Z,1023.94
2018-04-19T07:44:41.175Z,1023.92
2018-04-19T07:46:34.196Z,1023.90
2018-04-19T07:47:34.226Z,1023.92
2018-04-19T07:49:27.281Z,1023.92
2018-04-19T07:50:27.279Z,1023.95
2018-04-19T07:52:20.309Z,1023.94
2018-04-19T07:53:20.335Z,1023.94
2018-04-19T07:55:13.384Z,1023.96
2018-04-19T07:56:13.392Z,1023.96
2018-04-19T07:58:06.421Z,1023.96
2018-04-19T07:59:06.449Z,1023.99
2018-04-19T08:00:59.501Z,1023.99
2018-04-19T08:01:59.508Z,1024.00
2018-04-19T08:03:52.570Z,1023.99
2018-04-19T08:04:52.561Z,1023.97
2018-04-19T08:06:45.610Z,1024.01
2018-04-19T08:07:45.626Z,1023.98
2018-04-19T08:09:39.066Z,1023.97
2018-04-19T08:10:39.084Z,1024.01
2018-04-19T08:12:32.133Z,1023.95
2018-04-19T08:13:32.141Z,1023.93
2018-04-19T08:15:26.603Z,1023.95
2018-04-19T08:16:26.631Z,1023.94
2018-04-19T08:18:20.088Z,1023.91
2018-04-19T08:19:20.100Z,1023.97
2018-04-19T08:21:13.145Z,1023.94
2018-04-19T08:22:13.154Z,1023.97
2018-04-19T08:24:06.201Z,1023.96
2018-04-19T08:25:06.212Z,1024.00
2018-04-19T08:26:59.238Z,1023.99
2018-04-19T08:27:59.265Z,1023.97
2018-04-19T08:29:52.320Z,1023.96
2018-04-19T08:30:52.323Z,1023.96
2018-04-19T08:32:45.350Z,1023.95
2018-04-19T08:33:45.386Z,1023.95
2018-04-19T08:35:38.426Z,1023.94
2018-04-19T08:36:38.436Z,1023.95
2018-04-19T08:38:31.464Z,1023.93
2018-04-19T08:39:31.491Z,1023.98
2018-04-19T08:41:24.438Z,1023.91
2018-04-19T08:42:24.448Z,1023.89
2018-04-19T08:44:17.473Z,1023.86
2018-04-19T08:45:17.502Z,1023.88
2018-04-19T08:47:10.548Z,1023.85
2018-04-19T08:48:10.558Z,1023.87
2018-04-19T08:50:03.588Z,1023.82
2018-04-19T08:51:03.616Z,1023.81
2018-04-19T08:52:56.660Z,1023.76
2018-04-19T08:53:56.675Z,1023.73
2018-04-19T08:55:49.744Z,1023.77
2018-04-19T08:56:49.730Z,1023.76
2018-04-19T08:58:43.164Z,1023.72
2018-04-19T08:59:43.194Z,1023.69
2018-04-19T09:01:36.254Z,1023.68
2018-04-19T09:02:36.254Z,1023.69
2018-04-19T09:04:29.280Z,1023.65
2018-04-19T09:05:29.333Z,1023.65
2018-04-19T09:07:22.768Z,1023.65
2018-04-19T09:08:22.779Z,1023.67
2018-04-19T09:10:15.811Z,1023.68
2018-04-19T09:11:15.848Z,1023.66
2018-04-19T09:13:09.299Z,1023.66
2018-04-19T09:14:09.298Z,1023.64
2018-04-19T09:16:02.247Z,1023.65
2018-04-19T09:17:02.251Z,1023.65
2018-04-19T09:18:56.684Z,1023.64
2018-04-19T09:19:56.731Z,1023.65
2018-04-19T09:21:49.658Z,1023.68
2018-04-19T09:22:49.735Z,1023.63
2018-04-19T09:24:42.595Z,1023.65
2018-04-19T09:25:42.629Z,1023.64
2018-04-19T09:27:52.698Z,1023.66
2018-04-19T09:28:53.190Z,1023.66
2018-04-19T09:30:38.541Z,1023.65
2018-04-19T09:31:38.534Z,1023.65
2018-04-19T09:33:31.467Z,1023.65
2018-04-19T09:34:31.479Z,1023.67
2018-04-19T09:36:24.609Z,1023.61
2018-04-19T09:37:24.622Z,1023.62
2018-04-19T09:39:17.751Z,1023.62
2018-04-19T09:40:17.781Z,1023.63
2018-04-19T09:42:10.725Z,1023.59
2018-04-19T09:43:10.736Z,1023.57
2018-04-19T09:45:03.655Z,1023.58
2018-04-19T09:46:03.684Z,1023.56
2018-04-19T09:47:56.831Z,1023.61
2018-04-19T09:48:56.841Z,1023.53
2018-04-19T09:50:49.764Z,1023.53
2018-04-19T09:51:49.802Z,1023.54
2018-04-19T09:53:42.946Z,1023.52
2018-04-19T09:54:42.954Z,1023.52
2018-04-19T09:56:36.223Z,1023.45
2018-04-19T09:57:36.221Z,1023.48
2018-04-19T09:59:29.148Z,1023.44
2018-04-19T10:00:29.176Z,1023.45
2018-04-19T10:02:22.171Z,1023.45
2018-04-19T10:03:22.127Z,1023.45
2018-04-19T10:05:15.055Z,1023.43
2018-04-19T10:06:15.083Z,1023.46
2018-04-19T10:08:08.032Z,1023.40
2018-04-19T10:09:08.049Z,1023.42
2018-04-19T10:11:01.022Z,1023.37
2018-04-19T10:12:01.055Z,1023.42
2018-04-19T10:13:54.491Z,1023.36
2018-04-19T10:14:54.515Z,1023.38
2018-04-19T10:16:47.447Z,1023.36
2018-04-19T10:17:47.468Z,1023.28
2018-04-19T10:19:40.891Z,1023.28
2018-04-19T10:20:40.908Z,1023.26
2018-04-19T10:22:36.849Z,1023.31
2018-04-19T10:23:36.860Z,1023.30
2018-04-19T10:25:30.283Z,1023.26
2018-04-19T10:26:30.339Z,1023.24
2018-04-19T10:28:23.770Z,1023.23
2018-04-19T10:29:23.771Z,1023.24
2018-04-19T10:31:16.722Z,1023.26
2018-04-19T10:32:16.730Z,1023.23
2018-04-19T10:34:09.673Z,1023.19
2018-04-19T10:35:09.685Z,1023.24
2018-04-19T10:37:02.634Z,1023.19
2018-04-19T10:38:02.670Z,1023.19
2018-04-19T10:39:55.572Z,1023.16
2018-04-19T10:40:55.602Z,1023.16
2018-04-19T10:42:49.060Z,1023.14
2018-04-19T10:43:49.050Z,1023.16
2018-04-19T10:45:42.469Z,1023.09
2018-04-19T10:46:42.500Z,1023.12
2018-04-19T10:48:35.447Z,1023.13
2018-04-19T10:49:35.458Z,1023.12
2018-04-19T10:51:28.396Z,1023.10
2018-04-19T10:52:28.420Z,1023.07
2018-04-19T10:54:21.368Z,1023.09
2018-04-19T10:55:21.374Z,1023.07
2018-04-19T10:57:14.327Z,1023.07
2018-04-19T10:58:14.334Z,1023.05
2018-04-19T11:00:07.259Z,1023.00
2018-04-19T11:01:07.290Z,1023.00
2018-04-19T11:03:00.241Z,1023.00
2018-04-19T11:04:00.245Z,1022.99
2018-04-19T11:05:53.669Z,1022.99
2018-04-19T11:06:53.699Z,1022.97
2018-04-19T11:08:46.648Z,1022.95
2018-04-19T11:09:46.657Z,1022.95
2018-04-19T11:11:39.587Z,1023.00
2018-04-19T11:12:39.614Z,1022.94
2018-04-19T11:14:33.059Z,1022.92
2018-04-19T11:15:33.066Z,1022.92
2018-04-19T11:17:26.025Z,1022.86
2018-04-19T11:18:26.038Z,1022.87
2018-04-19T11:20:19.489Z,1022.85
2018-04-19T11:21:19.502Z,1022.83
2018-04-19T11:23:12.440Z,1022.82
2018-04-19T11:24:12.480Z,1022.79
2018-04-19T11:26:05.374Z,1022.88
2018-04-19T11:27:05.401Z,1022.83
2018-04-19T11:28:58.377Z,1022.82
2018-04-19T11:29:58.388Z,1022.79
2018-04-19T11:31:51.318Z,1022.76
2018-04-19T11:32:51.346Z,1022.74
2018-04-19T11:34:44.297Z,1022.73
2018-04-19T11:35:44.308Z,1022.74
2018-04-19T11:37:37.258Z,1022.73
2018-04-19T11:38:37.268Z,1022.69
2018-04-19T11:40:30.202Z,1022.63
2018-04-19T11:41:30.233Z,1022.65
2018-04-19T11:43:23.184Z,1022.68
2018-04-19T11:44:23.213Z,1022.67
2018-04-19T11:46:16.638Z,1022.61
2018-04-19T11:47:16.662Z,1022.58
2018-04-19T11:49:09.622Z,1022.56
2018-04-19T11:50:09.630Z,1022.60
2018-04-19T11:52:03.127Z,1022.61
2018-04-19T11:53:03.155Z,1022.52
2018-04-19T11:54:56.627Z,1022.54
2018-04-19T11:55:56.628Z,1022.51
2018-04-19T11:57:49.671Z,1022.53
2018-04-19T11:58:49.682Z,1022.50
2018-04-19T12:00:50.139Z,1022.48
2018-04-19T12:01:50.172Z,1022.46
2018-04-19T12:03:43.136Z,1022.44
2018-04-19T12:04:43.132Z,1022.41
2018-04-19T12:06:36.553Z,1022.43
2018-04-19T12:07:36.627Z,1022.42
2018-04-19T12:09:29.624Z,1022.43
2018-04-19T12:10:29.566Z,1022.43
2018-04-19T12:12:23.859Z,1022.40
2018-04-19T12:13:23.076Z,1022.40
2018-04-19T12:15:16.475Z,1022.41
2018-04-19T12:16:16.498Z,1022.37
2018-04-19T12:18:09.432Z,1022.33
2018-04-19T12:19:09.442Z,1022.38
2018-04-19T12:21:02.893Z,1022.34
2018-04-19T12:22:03.003Z,1022.35
2018-04-19T12:23:56.372Z,1022.34
2018-04-19T12:24:56.384Z,1022.35
2018-04-19T12:26:49.310Z,1022.32
2018-04-19T12:27:49.343Z,1022.33
2018-04-19T12:29:42.890Z,1022.34
2018-04-19T12:30:42.799Z,1022.25
2018-04-19T12:32:35.731Z,1022.31
2018-04-19T12:33:35.758Z,1022.30
2018-04-19T12:35:28.708Z,1022.24
2018-04-19T12:36:28.719Z,1022.28
2018-04-19T12:38:21.666Z,1022.22
2018-04-19T12:39:21.702Z,1022.25
2018-04-19T12:41:15.113Z,1022.23
2018-04-19T12:42:15.143Z,1022.17
2018-04-19T12:44:08.093Z,1022.18
2018-04-19T12:45:08.118Z,1022.16
2018-04-19T12:47:02.539Z,1022.16
2018-04-19T12:48:02.571Z,1022.15
2018-04-19T12:49:56.018Z,1022.12
2018-04-19T12:50:56.028Z,1022.11
2018-04-19T12:52:48.979Z,1022.06
2018-04-19T12:53:48.986Z,1022.04
2018-04-19T12:55:41.936Z,1022.05
2018-04-19T12:56:41.949Z,1022.02
2018-04-19T12:58:35.394Z,1022.02
2018-04-19T12:59:35.405Z,1022.00
2018-04-19T13:01:28.339Z,1022.05
2018-04-19T13:02:28.366Z,1022.00
2018-04-19T13:04:21.314Z,1022.02
2018-04-19T13:05:21.328Z,1022.03
2018-04-19T13:07:14.791Z,1021.98
2018-04-19T13:08:14.786Z,1021.97
2018-04-19T13:10:07.746Z,1021.93
2018-04-19T13:11:07.747Z,1021.89
2018-04-19T13:13:00.715Z,1021.90
2018-04-19T13:14:00.724Z,1021.92
2018-04-19T13:15:53.640Z,1021.91
2018-04-19T13:16:53.668Z,1021.86
2018-04-19T13:18:46.617Z,1021.81
2018-04-19T13:19:46.629Z,1021.80
2018-04-19T13:21:40.053Z,1021.75
2018-04-19T13:22:40.087Z,1021.78
2018-04-19T13:24:33.036Z,1021.78
2018-04-19T13:25:33.052Z,1021.74
2018-04-19T13:27:25.980Z,1021.68
2018-04-19T13:28:26.014Z,1021.71
2018-04-19T13:30:19.463Z,1021.70
2018-04-19T13:31:19.550Z,1021.64
2018-04-19T13:33:13.931Z,1021.64
2018-04-19T13:34:13.938Z,1021.67
2018-04-19T13:36:06.869Z,1021.62
2018-04-19T13:37:06.897Z,1021.60
2018-04-19T13:39:00.061Z,1021.61
2018-04-19T13:39:59.862Z,1021.57
2018-04-19T13:41:53.196Z,1021.59
2018-04-19T13:42:53.225Z,1021.58
2018-04-19T13:44:46.178Z,1021.50
2018-04-19T13:45:46.191Z,1021.52
2018-04-19T13:47:39.632Z,1021.50
2018-04-19T13:48:39.692Z,1021.49
2018-04-19T13:50:33.104Z,1021.45
2018-04-19T13:51:33.119Z,1021.47
2018-04-19T13:53:26.564Z,1021.37
2018-04-19T13:54:26.575Z,1021.38
2018-04-19T13:56:19.507Z,1021.36
2018-04-19T13:57:19.537Z,1021.36
2018-04-19T13:59:12.490Z,1021.28
2018-04-19T14:00:12.525Z,1021.30
2018-04-19T14:02:05.492Z,1021.28
2018-04-19T14:03:05.480Z,1021.27
2018-04-19T14:04:58.921Z,1021.33
2018-04-19T14:05:58.931Z,1021.27
2018-04-19T14:07:51.923Z,1021.26
2018-04-19T14:08:51.971Z,1021.27
2018-04-19T14:10:45.000Z,1021.28
2018-04-19T14:11:45.012Z,1021.24
2018-04-19T14:13:38.062Z,1021.22
2018-04-19T14:14:38.069Z,1021.21
2018-04-19T14:16:31.090Z,1021.17
2018-04-19T14:17:31.124Z,1021.24
2018-04-19T14:19:24.575Z,1021.15
2018-04-19T14:20:24.337Z,1021.13
2018-04-19T14:22:17.371Z,1021.14
2018-04-19T14:23:17.338Z,1021.15
2018-04-19T14:25:10.390Z,1021.17
2018-04-19T14:26:10.394Z,1021.13
2018-04-19T14:28:03.969Z,1021.14
2018-04-19T14:29:03.991Z,1021.12
2018-04-19T14:30:57.127Z,1021.09
2018-04-19T14:31:57.070Z,1021.07
2018-04-19T14:33:50.720Z,1021.05
2018-04-19T14:34:50.596Z,1021.07
2018-04-19T14:36:43.628Z,1021.05
2018-04-19T14:37:43.662Z,1021.01
2018-04-19T14:39:38.122Z,1021.15
2018-04-19T14:40:38.135Z,1021.13
2018-04-19T14:42:31.159Z,1021.02
2018-04-19T14:43:31.394Z,1021.00
2018-04-19T14:45:25.308Z,1020.97
2018-04-19T14:46:25.322Z,1020.99
2018-04-19T14:48:18.936Z,1020.95
2018-04-19T14:49:18.979Z,1020.96
2018-04-19T14:51:12.826Z,1020.96
2018-04-19T14:52:12.817Z,1020.96
2018-04-19T14:54:07.289Z,1020.94
2018-04-19T14:55:07.325Z,1020.91
2018-04-19T14:57:00.326Z,1020.90
2018-04-19T14:58:00.359Z,1020.86
2018-04-19T14:59:53.403Z,1020.92
2018-04-19T15:00:53.424Z,1020.87
2018-04-19T15:02:46.444Z,1020.91
2018-04-19T15:03:46.472Z,1020.89
2018-04-19T15:05:39.514Z,1020.88
2018-04-19T15:06:39.526Z,1020.87
2018-04-19T15:08:32.963Z,1020.84
2018-04-19T15:09:32.995Z,1020.87
2018-04-19T15:11:25.955Z,1020.85
2018-04-19T15:12:25.955Z,1020.84
2018-04-19T15:14:19.401Z,1020.83
2018-04-19T15:15:19.425Z,1020.86
2018-04-19T15:17:12.348Z,1020.86
2018-04-19T15:18:12.401Z,1020.83
2018-04-19T15:20:05.333Z,1020.81
2018-04-19T15:21:05.344Z,1020.78
2018-04-19T15:22:58.283Z,1020.77
2018-04-19T15:23:58.314Z,1020.75
2018-04-19T15:25:51.311Z,1020.78
2018-04-19T15:26:51.275Z,1020.71
2018-04-19T15:28:44.210Z,1020.74
2018-04-19T15:29:44.243Z,1020.76
2018-04-19T15:31:37.775Z,1020.73
2018-04-19T15:32:37.701Z,1020.70
2018-04-19T15:34:30.653Z,1020.69
2018-04-19T15:35:30.663Z,1020.70
2018-04-19T15:37:23.873Z,1020.71
2018-04-19T15:38:23.670Z,1020.70
2018-04-19T15:40:16.681Z,1020.69
2018-04-19T15:41:16.769Z,1020.67
2018-04-19T15:43:09.667Z,1020.64
2018-04-19T15:44:09.677Z,1020.68
2018-04-19T15:46:02.606Z,1020.70
2018-04-19T15:47:02.636Z,1020.76
2018-04-19T15:48:55.592Z,1020.69
2018-04-19T15:49:55.622Z,1020.66
2018-04-19T15:51:48.562Z,1020.68
2018-04-19T15:52:48.571Z,1020.61
2018-04-19T15:54:41.528Z,1020.64
2018-04-19T15:55:41.563Z,1020.55
2018-04-19T15:57:35.003Z,1020.62
2018-04-19T15:58:35.023Z,1020.62
2018-04-19T16:00:27.972Z,1020.58
2018-04-19T16:01:27.984Z,1020.58
2018-04-19T16:03:20.931Z,1020.58
2018-04-19T16:04:20.946Z,1020.62
2018-04-19T16:06:13.877Z,1020.54
2018-04-19T16:07:13.910Z,1020.55
2018-04-19T16:09:06.858Z,1020.60
2018-04-19T16:10:06.872Z,1020.56
2018-04-19T16:11:59.852Z,1020.51
2018-04-19T16:12:59.835Z,1020.53
2018-04-19T16:14:53.372Z,1020.49
2018-04-19T16:15:53.430Z,1020.47
2018-04-19T16:17:46.432Z,1020.52
2018-04-19T16:18:46.445Z,1020.47
2018-04-19T16:20:39.612Z,1020.47
2018-04-19T16:21:39.635Z,1020.49
2018-04-19T16:23:33.179Z,1020.50
2018-04-19T16:24:33.241Z,1020.49
2018-04-19T16:26:26.197Z,1020.38
2018-04-19T16:27:26.226Z,1020.41
2018-04-19T16:29:19.271Z,1020.40
2018-04-19T16:30:19.344Z,1020.38
2018-04-19T16:32:12.306Z,1020.34
2018-04-19T16:33:12.340Z,1020.32
2018-04-19T16:35:05.383Z,1020.31
2018-04-19T16:36:05.395Z,1020.33
2018-04-19T16:37:58.417Z,1020.36
2018-04-19T16:38:58.467Z,1020.34
2018-04-19T16:40:51.493Z,1020.33
2018-04-19T16:41:51.509Z,1020.37
2018-04-19T16:43:44.583Z,1020.34
2018-04-19T16:44:44.568Z,1020.39
2018-04-19T16:46:37.583Z,1020.34
2018-04-19T16:47:37.616Z,1020.29
2018-04-19T16:49:30.675Z,1020.30
2018-04-19T16:50:30.715Z,1020.27
2018-04-19T16:52:23.696Z,1020.28
2018-04-19T16:53:23.726Z,1020.30
2018-04-19T16:55:16.771Z,1020.28
2018-04-19T16:56:16.785Z,1020.28
2018-04-19T16:58:09.812Z,1020.26
2018-04-19T16:59:09.868Z,1020.26
2018-04-19T17:01:02.885Z,1020.22
2018-04-19T17:02:02.898Z,1020.22
2018-04-19T17:03:55.950Z,1020.21
2018-04-19T17:04:55.954Z,1020.18
2018-04-19T17:06:48.979Z,1020.21
2018-04-19T17:07:49.011Z,1020.18
2018-04-19T17:09:42.050Z,1020.18
2018-04-19T17:10:42.069Z,1020.15
2018-04-19T17:12:35.090Z,1020.15
2018-04-19T17:13:35.123Z,1020.17
2018-04-19T17:15:28.164Z,1020.16
2018-04-19T17:16:28.183Z,1020.14
2018-04-19T17:18:21.203Z,1020.13
2018-04-19T17:19:21.231Z,1020.14
2018-04-19T17:21:14.291Z,1020.13
2018-04-19T17:22:14.292Z,1020.11
2018-04-19T17:24:07.313Z,1020.09
2018-04-19T17:25:07.348Z,1020.09
2018-04-19T17:27:00.402Z,1020.08